Time;durP1;ratioP1;P1;durP2;ratioP2;P2;SDS_P1;SDS_P2;PMS_P1;PMS_P2;Temp;Humidity;BMP_temperature;BMP_pressure;BME280_temperature;BME280_humidity;BME280_pressure;Samples;Min_cycle;Max_cycle;Signal;HPM_P1;HPM_P2
2022/03/18 00:00:00;;;;;;;22.77;3.80;;;;;;;13.10;64.92;102726.25;5051592;28;20061;-89
2022/03/18 00:02:26;;;;;;;19.40;4.18;;;;;;;13.10;65.22;102737.66;5051144;28;20029;-88
2022/03/18 00:04:53;;;;;;;15.07;2.72;;;;;;;13.04;64.94;102732.63;5050830;28;20033;-88
2022/03/18 00:07:21;;;;;;;19.92;3.55;;;;;;;13.02;65.18;102729.19;5055929;28;20547;-89
2022/03/18 00:09:50;;;;;;;17.88;3.08;;;;;;;12.99;65.07;102731.09;5055455;28;20340;-89
2022/03/18 00:12:16;;;;;;;22.63;3.50;;;;;;;13.01;64.60;102737.16;5055592;28;20024;-88
2022/03/18 00:14:42;;;;;;;16.23;3.60;;;;;;;12.97;64.84;102740.84;5055662;28;20049;-88
2022/03/18 00:17:09;;;;;;;19.67;2.83;;;;;;;12.95;64.90;102737.41;5055158;28;20498;-88
2022/03/18 00:19:35;;;;;;;17.15;3.42;;;;;;;12.90;64.24;102730.56;5055066;28;20120;-88
2022/03/18 00:22:01;;;;;;;15.00;3.25;;;;;;;12.83;63.79;102728.22;5055038;28;20025;-88
2022/03/18 00:24:33;;;;;;;17.27;2.50;;;;;;;12.73;64.48;102729.53;5055348;28;20605;-88
2022/03/18 00:26:59;;;;;;;17.75;2.97;;;;;;;12.70;64.65;102727.88;5055219;28;20498;-88
2022/03/18 00:29:25;;;;;;;11.27;3.10;;;;;;;12.65;64.42;102728.03;5055011;28;20429;-88
2022/03/18 00:31:51;;;;;;;10.25;2.10;;;;;;;12.62;64.38;102725.53;5054770;28;20033;-89
2022/03/18 00:34:16;;;;;;;16.35;2.17;;;;;;;12.58;64.12;102726.59;5055045;28;20029;-88
2022/03/18 00:36:42;;;;;;;14.50;3.03;;;;;;;12.91;62.15;102731.41;5055133;28;20154;-88
2022/03/18 00:39:07;;;;;;;13.20;2.78;;;;;;;12.86;62.04;102730.75;5054943;28;20406;-88
2022/03/18 00:41:33;;;;;;;17.02;2.72;;;;;;;12.62;62.71;102730.81;5055139;28;20056;-88
2022/03/18 00:43:58;;;;;;;11.90;3.70;;;;;;;12.49;63.01;102743.59;5053720;28;20111;-88
2022/03/18 00:46:24;;;;;;;16.13;3.63;;;;;;;12.43;63.09;102746.47;5054520;28;20084;-88
2022/03/18 00:54:18;;;;;;;21.27;3.50;;;;;;;12.75;63.00;102746.13;5054707;28;20023;-88
2022/03/18 00:56:43;;;;;;;16.77;3.13;;;;;;;12.63;63.46;102747.47;5054669;28;20453;-88
2022/03/18 00:59:10;;;;;;;15.52;2.67;;;;;;;12.47;64.53;102752.47;5054433;28;20129;-88
2022/03/18 01:01:36;;;;;;;17.92;3.72;;;;;;;12.51;64.87;102751.44;5054242;28;20491;-88
2022/03/18 01:04:02;;;;;;;15.55;3.20;;;;;;;12.68;64.42;102749.00;5054656;28;20107;-88
2022/03/18 01:06:28;;;;;;;20.98;3.30;;;;;;;12.57;64.66;102753.84;5054426;28;20395;-88
2022/03/18 01:08:53;;;;;;;21.05;3.15;;;;;;;12.56;64.40;102752.13;5052985;28;20021;-88
2022/03/18 01:11:19;;;;;;;8.77;1.90;;;;;;;12.46;64.30;102756.91;5054362;28;20536;-88
2022/03/18 01:13:44;;;;;;;11.68;2.28;;;;;;;12.39;64.47;102757.19;5054713;28;20375;-87
2022/03/18 01:16:09;;;;;;;13.57;2.83;;;;;;;12.33;64.08;102762.69;5054004;28;20028;-88
2022/03/18 01:18:35;;;;;;;13.82;2.33;;;;;;;12.28;64.11;102769.00;5053727;28;20471;-88
2022/03/18 01:21:00;;;;;;;11.43;2.40;;;;;;;12.26;64.23;102768.19;5054208;28;20035;-87
2022/03/18 01:23:25;;;;;;;11.73;3.38;;;;;;;12.20;64.22;102771.03;5054292;28;20028;-87
2022/03/18 01:25:51;;;;;;;15.43;3.45;;;;;;;12.22;64.34;102768.34;5054111;28;20041;-88
2022/03/18 01:28:17;;;;;;;15.45;3.25;;;;;;;12.15;64.46;102764.25;5054015;28;20075;-88
2022/03/18 01:30:42;;;;;;;17.55;2.65;;;;;;;12.19;64.46;102773.75;5053768;28;20104;-88
2022/03/18 01:33:07;;;;;;;8.93;2.25;;;;;;;12.19;64.66;102782.50;5052230;28;20471;-88
2022/03/18 01:35:33;;;;;;;11.85;3.35;;;;;;;12.26;64.59;102780.50;5052775;28;20036;-88
2022/03/18 01:37:58;;;;;;;15.38;2.30;;;;;;;12.23;64.34;102784.09;5054068;28;20021;-88
2022/03/18 01:40:23;;;;;;;12.73;2.58;;;;;;;12.21;63.99;102791.22;5053977;28;20029;-88
2022/03/18 01:42:49;;;;;;;11.50;2.30;;;;;;;12.15;64.56;102794.06;5053859;28;20540;-88
2022/03/18 01:45:14;;;;;;;12.45;2.35;;;;;;;11.81;65.25;102797.88;5053706;28;20033;-88
2022/03/18 01:47:43;;;;;;;12.73;2.40;;;;;;;11.76;65.23;102812.97;5053247;28;20025;-88
2022/03/18 01:50:10;;;;;;;11.77;2.00;;;;;;;11.67;65.23;102808.88;5053800;28;20017;-88
2022/03/18 01:52:36;;;;;;;9.07;2.00;;;;;;;11.66;65.41;102809.78;5053603;28;20029;-88
2022/03/18 01:55:02;;;;;;;11.30;2.33;;;;;;;11.61;65.62;102821.38;5053619;28;20099;-88
2022/03/18 01:57:28;;;;;;;12.15;2.42;;;;;;;11.56;65.83;102818.06;5053583;28;20675;-88
2022/03/18 01:59:54;;;;;;;10.38;1.83;;;;;;;11.57;65.88;102814.50;5053496;28;20071;-88
2022/03/18 02:02:19;;;;;;;12.80;2.65;;;;;;;11.54;65.73;102814.63;5053192;28;20028;-88
2022/03/18 02:04:45;;;;;;;18.95;2.90;;;;;;;11.67;65.34;102808.00;5052921;28;20083;-88
2022/03/18 02:07:12;;;;;;;14.35;2.50;;;;;;;11.63;65.59;102824.81;5051896;28;20057;-88
2022/03/18 02:09:38;;;;;;;12.23;2.80;;;;;;;11.62;65.39;102815.22;5053468;28;20025;-88
2022/03/18 02:12:06;;;;;;;12.40;1.95;;;;;;;11.76;65.03;102814.75;5053219;28;20029;-87
2022/03/18 02:14:37;;;;;;;10.88;2.17;;;;;;;12.00;64.20;102820.94;5052927;28;20021;-88
2022/03/18 02:17:05;;;;;;;15.18;3.47;;;;;;;11.96;64.01;102814.06;5052658;28;20545;-88
2022/03/18 02:19:30;;;;;;;8.30;1.88;;;;;;;12.11;63.47;102824.06;5051563;28;20021;-88
2022/03/18 02:21:57;;;;;;;10.98;2.15;;;;;;;12.08;63.37;102827.69;5053189;28;20425;-88
2022/03/18 02:24:23;;;;;;;9.38;2.03;;;;;;;12.08;63.00;102830.31;5051610;28;20032;-88
2022/03/18 02:26:50;;;;;;;9.55;1.90;;;;;;;11.77;63.69;102829.59;5053032;28;20029;-88
2022/03/18 02:29:21;;;;;;;10.68;2.17;;;;;;;11.65;63.99;102836.13;5052595;28;20060;-88
2022/03/18 02:31:47;;;;;;;14.95;2.47;;;;;;;11.54;64.60;102847.03;5052728;28;20025;-88
2022/03/18 02:34:13;;;;;;;10.60;3.05;;;;;;;11.61;64.41;102855.56;5052221;28;20082;-88
2022/03/18 02:36:38;;;;;;;14.02;2.58;;;;;;;11.56;64.33;102853.09;5051412;28;20450;-88
2022/03/18 02:39:04;;;;;;;8.07;3.20;;;;;;;11.56;64.19;102854.88;5052737;28;20036;-88
2022/03/18 02:41:32;;;;;;;8.77;2.45;;;;;;;11.49;64.06;102844.56;5052702;28;20067;-88
2022/03/18 02:43:58;;;;;;;14.05;2.38;;;;;;;11.48;63.94;102844.59;5052777;28;20382;-88
2022/03/18 02:46:23;;;;;;;15.38;3.35;;;;;;;11.42;64.02;102843.03;5052535;28;20032;-88
2022/03/18 02:48:49;;;;;;;18.58;4.15;;;;;;;11.25;64.53;102837.47;5051926;28;20112;-88
2022/03/18 02:51:14;;;;;;;18.40;2.20;;;;;;;11.18;64.97;102841.22;5052197;28;20021;-88
2022/03/18 02:53:40;;;;;;;10.40;2.50;;;;;;;11.31;64.31;102838.13;5052425;28;20078;-88
2022/03/18 02:56:07;;;;;;;16.85;2.95;;;;;;;11.32;64.21;102841.63;5052238;28;20060;-88
2022/03/18 02:58:35;;;;;;;14.30;2.88;;;;;;;11.25;64.43;102850.59;5052282;28;20025;-88
2022/03/18 03:01:01;;;;;;;9.77;2.45;;;;;;;11.26;64.44;102839.19;5052129;28;20510;-87
2022/03/18 03:03:27;;;;;;;8.68;2.42;;;;;;;11.21;64.30;102841.94;5051851;28;20379;-88
2022/03/18 03:08:37;;;;;;;10.90;2.30;;;;;;;11.14;64.10;102844.81;5052030;28;20039;-87
2022/03/18 03:11:02;;;;;;;10.88;2.75;;;;;;;11.12;64.08;102847.50;5052138;28;20029;-88
2022/03/18 03:13:27;;;;;;;8.27;2.03;;;;;;;11.09;63.88;102848.44;5052269;28;20092;-88
2022/03/18 03:15:53;;;;;;;10.23;3.33;;;;;;;11.07;63.93;102846.78;5052090;28;20056;-87
2022/03/18 03:18:18;;;;;;;11.15;2.42;;;;;;;11.02;63.56;102854.81;5041197;28;20056;-88
2022/03/18 03:20:44;;;;;;;13.55;2.38;;;;;;;11.00;63.83;102859.28;5031913;28;20036;-88
2022/03/18 03:23:09;;;;;;;7.55;2.60;;;;;;;10.86;64.56;102864.06;5032073;28;20025;-88
2022/03/18 03:25:35;;;;;;;13.23;2.58;;;;;;;10.88;65.00;102860.50;5032075;28;20031;-88
2022/03/18 03:28:00;;;;;;;16.17;2.88;;;;;;;11.16;64.57;102851.75;5032009;28;20420;-88
2022/03/18 03:30:26;;;;;;;14.50;2.28;;;;;;;11.31;63.82;102843.41;5031981;28;20029;-88
2022/03/18 03:32:52;;;;;;;11.20;1.90;;;;;;;11.05;64.30;102851.22;5039641;28;20050;-88
2022/03/18 03:35:18;;;;;;;12.23;1.80;;;;;;;11.21;64.10;102854.25;5051887;28;20029;-88
2022/03/18 03:37:44;;;;;;;7.80;1.60;;;;;;;11.27;63.88;102848.78;5051830;28;20100;-87
2022/03/18 03:40:13;;;;;;;13.27;2.10;;;;;;;11.30;63.69;102846.06;5051849;28;20820;-88
2022/03/18 03:42:39;;;;;;;9.15;1.92;;;;;;;11.27;63.43;102846.16;5050286;28;20033;-88
2022/03/18 03:45:06;;;;;;;10.88;2.40;;;;;;;10.99;64.02;102860.16;5051085;28;20021;-88
2022/03/18 03:47:31;;;;;;;9.18;1.80;;;;;;;10.93;63.96;102862.97;5051390;28;20033;-88
2022/03/18 03:49:56;;;;;;;19.40;2.90;;;;;;;10.85;64.31;102860.56;5049969;28;20021;-87
2022/03/18 03:52:22;;;;;;;6.97;2.15;;;;;;;10.87;64.62;102864.03;5051690;28;20025;-88
2022/03/18 03:54:47;;;;;;;5.80;2.20;;;;;;;10.82;64.69;102862.44;5051726;28;20448;-88
2022/03/18 03:57:12;;;;;;;5.82;1.95;;;;;;;10.82;64.73;102872.94;5051646;28;20452;-88
2022/03/18 03:59:38;;;;;;;14.60;1.95;;;;;;;10.69;65.14;102875.09;5051018;28;20033;-88
2022/03/18 04:02:03;;;;;;;9.82;1.52;;;;;;;10.40;66.28;102878.53;5051371;28;20025;-88
2022/03/18 04:04:29;;;;;;;12.25;2.00;;;;;;;10.26;66.66;102877.09;5051336;28;20017;-88
2022/03/18 04:06:54;;;;;;;8.23;2.08;;;;;;;10.21;66.84;102879.00;5051471;28;20024;-87
2022/03/18 04:09:20;;;;;;;12.77;2.05;;;;;;;10.17;67.00;102880.00;5051444;28;20583;-88
2022/03/18 04:11:46;;;;;;;10.35;2.28;;;;;;;10.16;66.61;102887.91;5051290;28;20032;-88
2022/03/18 04:14:11;;;;;;;7.07;1.67;;;;;;;10.04;66.88;102887.31;5051583;28;20052;-88
2022/03/18 04:16:36;;;;;;;10.70;2.00;;;;;;;10.04;66.54;102887.31;5051415;28;20025;-88
2022/03/18 04:19:05;;;;;;;9.23;1.83;;;;;;;10.02;66.82;102883.03;5051452;28;20021;-88
2022/03/18 04:21:31;;;;;;;8.35;2.45;;;;;;;10.04;67.20;102889.09;5051443;28;20569;-88
2022/03/18 04:23:56;;;;;;;7.95;2.35;;;;;;;10.07;66.62;102891.63;5050317;28;20115;-88
2022/03/18 04:26:21;;;;;;;10.75;2.35;;;;;;;10.05;67.47;102896.94;5051314;28;20479;-88
2022/03/18 04:28:47;;;;;;;8.40;2.13;;;;;;;10.03;67.37;102897.84;5051337;28;20388;-87
2022/03/18 04:31:12;;;;;;;8.35;1.55;;;;;;;10.06;67.47;102895.16;5050736;28;20116;-88
2022/03/18 04:33:38;;;;;;;6.43;1.23;;;;;;;10.10;67.70;102899.44;5051266;28;20103;-88
2022/03/18 04:36:04;;;;;;;4.32;1.15;;;;;;;10.13;66.99;102894.13;5051376;28;20374;-88
2022/03/18 04:38:29;;;;;;;2.38;1.42;;;;;;;10.12;67.05;102906.34;5051198;28;20025;-88
2022/03/18 04:40:55;;;;;;;2.58;0.82;;;;;;;10.34;66.40;102899.72;5051034;28;20025;-88
2022/03/18 04:43:20;;;;;;;6.30;0.90;;;;;;;10.38;66.35;102902.19;5051269;28;20023;-88
2022/03/18 04:45:45;;;;;;;2.13;0.90;;;;;;;10.43;66.53;102905.56;5050861;28;20068;-88
2022/03/18 04:48:11;;;;;;;5.47;1.20;;;;;;;10.46;66.59;102920.38;5051008;28;20028;-88
2022/03/18 04:50:36;;;;;;;7.22;2.10;;;;;;;10.64;66.04;102922.53;5051197;28;20025;-88
2022/03/18 04:53:01;;;;;;;5.00;1.00;;;;;;;10.82;65.16;102920.25;5054602;28;20025;-88
2022/03/18 04:55:27;;;;;;;4.38;1.23;;;;;;;10.79;64.96;102929.09;5054818;28;20506;-88
2022/03/18 04:57:53;;;;;;;5.38;1.10;;;;;;;10.74;65.03;102936.22;5053509;28;20032;-87
2022/03/18 05:00:20;;;;;;;4.68;1.50;;;;;;;10.66;65.08;102931.22;5054385;28;20411;-88
2022/03/18 05:02:45;;;;;;;9.93;3.38;;;;;;;10.59;64.81;102932.28;5053761;28;20035;-88
2022/03/18 05:05:11;;;;;;;6.63;1.80;;;;;;;10.48;64.82;102942.22;5054412;28;20037;-87
2022/03/18 05:07:40;;;;;;;5.53;1.70;;;;;;;10.45;65.00;102934.44;5054853;28;20033;-88
2022/03/18 05:10:07;;;;;;;11.80;2.63;;;;;;;10.45;65.02;102939.69;5054442;28;20032;-87
2022/03/18 05:12:33;;;;;;;12.05;2.40;;;;;;;10.39;64.67;102945.97;5053095;28;20075;-88
2022/03/18 05:14:59;;;;;;;12.10;2.80;;;;;;;10.37;64.52;102946.88;5054309;28;20025;-88
2022/03/18 05:17:25;;;;;;;8.15;2.30;;;;;;;10.31;63.80;102959.28;5053925;28;20483;-88
2022/03/18 05:19:51;;;;;;;5.25;1.50;;;;;;;10.24;64.15;102962.94;5054146;28;20071;-88
2022/03/18 05:22:16;;;;;;;6.55;1.40;;;;;;;10.31;64.06;102964.53;5054235;28;20025;-88
2022/03/18 05:24:42;;;;;;;6.65;2.08;;;;;;;10.24;64.03;102962.94;5054162;28;20186;-88
2022/03/18 05:27:07;;;;;;;12.65;2.75;;;;;;;10.34;64.74;102975.88;5054236;28;20379;-87
2022/03/18 05:29:33;;;;;;;10.63;2.75;;;;;;;10.38;64.62;102965.25;5053796;28;20025;-88
2022/03/18 05:32:01;;;;;;;10.43;2.63;;;;;;;10.41;64.73;102975.69;5053225;28;20486;-88
2022/03/18 05:34:26;;;;;;;9.05;2.47;;;;;;;10.23;65.84;102981.34;5054063;28;20497;-88
2022/03/18 05:36:52;;;;;;;7.25;2.47;;;;;;;10.27;65.81;102962.88;5053996;28;20021;-88
2022/03/18 05:39:17;;;;;;;11.38;2.65;;;;;;;10.35;65.78;102965.34;5052469;28;20045;-88
2022/03/18 05:41:43;;;;;;;15.63;3.10;;;;;;;10.38;66.11;102977.50;5053697;28;20096;-88
2022/03/18 05:44:10;;;;;;;10.68;4.10;;;;;;;10.64;65.44;102982.94;5052632;28;20510;-88
2022/03/18 05:46:35;;;;;;;11.35;3.55;;;;;;;10.76;65.09;102980.88;5053353;28;20036;-88
2022/03/18 05:49:01;;;;;;;14.27;3.63;;;;;;;10.74;64.83;102985.31;5053594;28;20475;-88
2022/03/18 05:51:27;;;;;;;17.58;4.53;;;;;;;10.70;65.11;102988.03;5053619;28;20021;-88
2022/03/18 05:53:52;;;;;;;18.85;4.30;;;;;;;10.75;64.67;102992.31;5053305;28;20045;-88
2022/03/18 05:59:06;;;;;;;10.15;2.67;;;;;;;10.86;64.91;102996.38;5053659;28;20394;-88
2022/03/18 06:01:31;;;;;;;10.13;4.15;;;;;;;11.10;64.63;102994.81;5052153;28;20033;-88
2022/03/18 06:03:57;;;;;;;11.57;4.22;;;;;;;11.13;63.88;102991.22;5052183;28;20056;-88
2022/03/18 06:06:23;;;;;;;11.63;3.20;;;;;;;11.17;63.47;102992.00;5053295;28;20029;-88
2022/03/18 06:11:51;;;;;;;8.15;3.60;;;;;;;11.08;64.21;102998.38;5053080;28;20051;-88
2022/03/18 06:14:24;;;;;;;10.07;3.33;;;;;;;11.03;64.71;102995.88;5051894;28;20036;-88
2022/03/18 06:16:53;;;;;;;23.30;3.58;;;;;;;10.99;63.71;102996.00;5051841;28;20367;-87
2022/03/18 06:19:20;;;;;;;9.35;2.83;;;;;;;10.93;64.64;102994.41;5053162;28;20074;-88
2022/03/18 06:21:45;;;;;;;7.97;2.92;;;;;;;10.99;64.62;102994.22;5051658;28;20020;-88
2022/03/18 06:24:11;;;;;;;5.53;2.70;;;;;;;10.94;64.51;102996.16;5052600;28;20040;-87
2022/03/18 06:26:37;;;;;;;4.82;2.50;;;;;;;10.70;65.56;102995.94;5054654;28;20367;-89
2022/03/18 06:29:04;;;;;;;4.45;2.35;;;;;;;10.61;65.93;102996.16;5054056;28;20028;-88
2022/03/18 06:31:29;;;;;;;3.55;2.10;;;;;;;10.60;65.66;102997.03;5054839;28;20075;-89
2022/03/18 06:33:55;;;;;;;6.43;2.53;;;;;;;10.86;65.17;102998.09;5054285;28;20479;-88
2022/03/18 06:36:20;;;;;;;5.07;2.80;;;;;;;10.94;65.09;103001.41;5083768;28;20040;-89
2022/03/18 06:38:45;;;;;;;6.80;3.50;;;;;;;10.95;64.76;103005.75;5072819;28;20030;-89
2022/03/18 06:41:11;;;;;;;6.65;3.28;;;;;;;10.86;64.44;103000.72;5052766;28;20104;-87
2022/03/18 06:43:36;;;;;;;4.47;2.95;;;;;;;10.75;64.92;103008.06;5052275;28;20104;-88
2022/03/18 06:46:02;;;;;;;5.47;3.35;;;;;;;10.54;65.83;103015.59;5050748;28;20029;-89
2022/03/18 06:48:28;;;;;;;3.35;2.67;;;;;;;10.87;64.66;103003.31;5052802;28;20025;-88
2022/03/18 06:50:54;;;;;;;4.35;2.53;;;;;;;11.10;63.79;103013.22;5052336;28;20021;-87
2022/03/18 06:53:20;;;;;;;4.72;2.95;;;;;;;11.10;63.67;103010.56;5052123;28;20039;-86
2022/03/18 06:55:45;;;;;;;5.45;2.70;;;;;;;10.96;63.63;103025.88;5051093;28;20171;-87
2022/03/18 06:58:10;;;;;;;4.00;2.75;;;;;;;11.04;63.88;103018.63;5052345;28;20032;-86
2022/03/18 07:00:36;;;;;;;4.00;3.25;;;;;;;11.10;63.61;103017.59;5051176;28;20028;-87
2022/03/18 07:03:02;;;;;;;6.00;3.08;;;;;;;11.18;63.85;103022.66;5052619;28;20099;-87
2022/03/18 07:05:27;;;;;;;15.50;3.00;;;;;;;11.20;63.51;103024.31;5052298;28;20055;-86
2022/03/18 07:07:53;;;;;;;4.07;3.00;;;;;;;11.26;63.95;103023.28;5050729;28;20033;-85
2022/03/18 07:10:18;;;;;;;3.30;2.60;;;;;;;11.35;64.25;103023.00;5050908;28;20068;-86
2022/03/18 07:12:44;;;;;;;24.40;2.53;;;;;;;11.37;63.48;103030.84;5052785;28;20391;-86
2022/03/18 07:15:09;;;;;;;1.73;1.63;;;;;;;11.42;63.69;103037.72;5051882;28;20017;-86
2022/03/18 07:20:19;;;;;;;3.67;2.58;;;;;;;11.58;64.13;103034.63;5052347;28;20098;-88
2022/03/18 07:22:44;;;;;;;3.13;2.65;;;;;;;11.68;64.12;103041.31;5052290;28;20029;-86
2022/03/18 07:25:10;;;;;;;3.85;2.67;;;;;;;11.74;63.79;103046.41;5050761;28;20043;-86
2022/03/18 07:27:35;;;;;;;3.90;2.67;;;;;;;11.77;63.97;103045.44;5052184;28;20086;-86
2022/03/18 07:30:05;;;;;;;2.63;2.38;;;;;;;11.87;64.27;103037.22;5050632;28;20025;-86
2022/03/18 07:32:30;;;;;;;4.05;2.63;;;;;;;11.56;65.17;103044.34;5052107;28;20032;-85
2022/03/18 07:34:56;;;;;;;2.90;2.50;;;;;;;11.57;65.82;103046.03;5054416;28;20331;-85
2022/03/18 07:37:21;;;;;;;3.88;3.00;;;;;;;11.60;66.19;103045.97;5071677;28;20025;-85
2022/03/18 07:39:46;;;;;;;4.88;2.33;;;;;;;11.57;65.76;103036.41;5065492;28;20036;-85
2022/03/18 07:42:13;;;;;;;4.28;2.95;;;;;;;11.60;65.84;103044.19;5054301;28;20035;-86
2022/03/18 07:44:38;;;;;;;4.20;2.97;;;;;;;11.89;65.76;103045.97;5059210;28;20052;-86
2022/03/18 07:47:04;;;;;;;4.30;3.03;;;;;;;12.07;65.69;103044.50;5051871;28;20468;-86
2022/03/18 07:49:29;;;;;;;4.55;3.35;;;;;;;12.03;65.51;103053.44;5050512;28;20021;-86
2022/03/18 07:51:54;;;;;;;4.57;3.75;;;;;;;12.03;65.72;103049.94;5052097;28;20021;-86
2022/03/18 07:54:20;;;;;;;10.02;3.97;;;;;;;12.18;65.86;103049.41;5050655;28;20094;-87
2022/03/18 07:56:45;;;;;;;6.80;3.92;;;;;;;12.33;65.86;103053.34;5066871;28;20082;-86
2022/03/18 07:59:10;;;;;;;9.35;4.10;;;;;;;12.64;65.65;103055.81;5050399;28;20052;-87
2022/03/18 08:01:38;;;;;;;6.95;3.92;;;;;;;12.83;65.61;103057.78;5048429;28;20049;-87
2022/03/18 08:04:04;;;;;;;8.27;3.67;;;;;;;13.34;64.63;103051.56;5049319;28;20017;-87
2022/03/18 08:06:29;;;;;;;8.68;3.67;;;;;;;13.92;63.51;103052.88;5048611;28;20079;-87
2022/03/18 08:08:55;;;;;;;8.68;4.57;;;;;;;14.21;61.70;103059.63;5043575;28;20041;-88
2022/03/18 08:11:20;;;;;;;7.38;4.22;;;;;;;14.26;62.24;103057.69;5051070;28;20120;-87
2022/03/18 08:13:49;;;;;;;8.25;4.07;;;;;;;14.60;61.02;103049.22;5050530;28;20502;-89
2022/03/18 08:16:15;;;;;;;8.38;4.55;;;;;;;15.38;60.37;103060.75;5051691;28;20025;-88
2022/03/18 08:18:40;;;;;;;6.82;4.07;;;;;;;15.78;59.33;103058.06;5051200;28;20150;-87
2022/03/18 08:21:05;;;;;;;6.60;3.70;;;;;;;16.01;58.78;103059.59;5050996;28;20029;-87
2022/03/18 08:23:32;;;;;;;6.55;3.60;;;;;;;16.63;58.22;103047.63;5055248;28;20032;-87
2022/03/18 08:25:57;;;;;;;7.97;4.38;;;;;;;17.87;56.95;103055.19;5052381;28;20029;-87
2022/03/18 08:28:23;;;;;;;6.90;3.20;;;;;;;18.02;55.16;103064.06;5054296;28;20036;-87
2022/03/18 08:30:49;;;;;;;13.98;3.33;;;;;;;19.07;51.33;103073.84;5055066;28;20033;-87
2022/03/18 08:33:14;;;;;;;5.57;3.28;;;;;;;20.32;48.60;103067.59;5054177;28;20467;-87
2022/03/18 08:35:41;;;;;;;6.03;3.83;;;;;;;21.32;45.99;103067.84;5054599;28;20505;-87
2022/03/18 08:38:08;;;;;;;4.38;2.40;;;;;;;22.26;43.85;103061.00;5054218;28;20028;-87
2022/03/18 08:40:36;;;;;;;5.80;2.53;;;;;;;22.94;42.18;103049.44;5051472;28;20052;-87
2022/03/18 08:43:07;;;;;;;5.18;2.70;;;;;;;23.46;40.21;103056.97;5047087;28;20032;-87
2022/03/18 08:45:34;;;;;;;4.50;2.30;;;;;;;23.93;40.13;103053.13;5054283;28;20115;-87
2022/03/18 08:47:59;;;;;;;3.08;1.95;;;;;;;24.61;39.25;103065.38;5054870;28;20025;-87
2022/03/18 08:50:25;;;;;;;3.33;1.70;;;;;;;25.11;37.81;103071.69;5054425;28;20429;-87
2022/03/18 08:52:53;;;;;;;5.88;2.13;;;;;;;25.59;36.72;103074.69;5053667;28;20029;-87
2022/03/18 08:55:20;;;;;;;6.07;2.63;;;;;;;26.04;35.95;103074.19;5054762;28;20033;-87
2022/03/18 08:57:46;;;;;;;5.05;2.45;;;;;;;26.63;35.47;103080.41;5053391;28;20418;-88
2022/03/18 09:00:15;;;;;;;5.00;2.42;;;;;;;27.08;34.83;103079.69;5052870;28;20090;-88
2022/03/18 09:02:42;;;;;;;5.65;2.85;;;;;;;27.51;33.08;103080.91;5054628;28;20176;-88
2022/03/18 09:05:08;;;;;;;5.20;2.67;;;;;;;27.16;33.28;103087.88;5054802;28;20021;-87
2022/03/18 09:07:34;;;;;;;6.57;2.95;;;;;;;26.28;34.12;103090.78;5054637;28;20029;-88
2022/03/18 09:10:00;;;;;;;4.75;2.53;;;;;;;25.99;34.88;103096.19;5054367;28;20036;-88
2022/03/18 09:12:26;;;;;;;4.82;2.47;;;;;;;26.31;34.29;103103.13;5054200;28;20071;-87
2022/03/18 09:14:51;;;;;;;5.85;3.00;;;;;;;26.33;34.51;103106.50;5054322;28;20036;-88
2022/03/18 09:17:17;;;;;;;7.82;2.72;;;;;;;26.75;34.16;103100.78;5052873;28;20017;-87
2022/03/18 09:19:42;;;;;;;6.93;2.65;;;;;;;26.57;34.12;103118.69;5054367;28;20086;-87
2022/03/18 09:22:08;;;;;;;2.95;1.90;;;;;;;27.10;34.79;103110.06;5054046;28;20021;-87
2022/03/18 09:24:35;;;;;;;3.88;2.08;;;;;;;27.75;33.21;103114.56;5053682;28;20056;-88
2022/03/18 09:27:02;;;;;;;5.65;2.38;;;;;;;28.53;31.26;103124.78;5053982;28;20430;-88
2022/03/18 09:29:27;;;;;;;4.93;2.53;;;;;;;28.54;31.46;103121.09;5053193;28;20115;-88
2022/03/18 09:31:53;;;;;;;7.05;2.15;;;;;;;28.15;31.99;103126.81;5053782;28;20115;-89
2022/03/18 09:34:24;;;;;;;5.63;1.60;;;;;;;27.82;32.34;103137.22;5053476;28;20448;-87
2022/03/18 09:36:53;;;;;;;4.50;2.05;;;;;;;27.99;31.07;103144.53;5053618;28;20044;-87
2022/03/18 09:39:18;;;;;;;7.90;2.67;;;;;;;28.13;32.00;103145.00;5053504;28;20289;-87
2022/03/18 09:41:44;;;;;;;9.65;2.05;;;;;;;28.83;31.48;103148.66;5053680;28;20271;-87
2022/03/18 09:44:10;;;;;;;4.53;1.67;;;;;;;28.75;30.46;103145.03;5053364;28;20037;-88
2022/03/18 09:46:36;;;;;;;4.72;1.95;;;;;;;29.06;31.13;103145.41;5053179;28;20039;-88
2022/03/18 09:49:01;;;;;;;5.28;1.58;;;;;;;29.33;30.60;103148.97;5052312;28;20021;-88
2022/03/18 09:51:27;;;;;;;5.47;2.22;;;;;;;29.39;29.65;103140.19;5037082;28;20053;-87
2022/03/18 09:53:53;;;;;;;3.80;1.65;;;;;;;29.06;30.67;103154.34;5033561;28;20044;-87
2022/03/18 09:56:18;;;;;;;4.80;1.58;;;;;;;28.59;30.92;103156.56;5033395;28;20454;-87
2022/03/18 09:58:43;;;;;;;6.78;2.08;;;;;;;28.56;30.81;103151.50;5036217;28;20507;-87
2022/03/18 10:01:09;;;;;;;8.30;2.22;;;;;;;28.46;31.24;103149.69;5043613;28;20121;-87
2022/03/18 10:03:41;;;;;;;7.57;2.53;;;;;;;29.08;30.58;103152.34;5052605;28;20075;-86
2022/03/18 10:06:10;;;;;;;4.47;1.90;;;;;;;29.11;30.73;103153.88;5052996;28;20100;-86
2022/03/18 10:08:35;;;;;;;5.78;1.95;;;;;;;28.45;31.11;103148.00;5053459;28;20112;-87
2022/03/18 10:11:23;;;;;;;4.60;1.90;;;;;;;28.77;30.80;103154.69;5052088;28;20166;-87
2022/03/18 10:13:54;;;;;;;9.07;2.35;;;;;;;28.91;30.45;103155.09;5053322;28;20078;-87
2022/03/18 10:16:40;;;;;;;7.10;2.05;;;;;;;28.99;30.90;103157.84;5052792;28;20383;-87
2022/03/18 10:19:14;;;;;;;8.48;2.50;;;;;;;29.51;30.23;103162.38;5053103;28;20482;-87
2022/03/18 10:21:59;;;;;;;7.32;2.10;;;;;;;30.20;30.25;103150.38;5052890;28;20513;-86
2022/03/18 10:24:35;;;;;;;9.82;2.20;;;;;;;30.16;29.88;103161.72;5032952;28;20379;-87
2022/03/18 10:27:18;;;;;;;7.13;2.42;;;;;;;30.00;30.52;103166.09;5033337;28;20480;-87
2022/03/18 10:29:47;;;;;;;10.30;2.60;;;;;;;29.91;29.74;103164.38;5031751;28;20049;-87
2022/03/18 10:32:15;;;;;;;6.65;2.17;;;;;;;30.22;29.87;103166.47;5039210;28;20096;-87
2022/03/18 10:37:44;;;;;;;6.82;2.17;;;;;;;29.49;30.53;103176.06;5052987;28;20110;-87
2022/03/18 10:40:11;;;;;;;6.35;2.15;;;;;;;29.61;30.18;103163.09;5051301;28;20075;-87
2022/03/18 10:42:37;;;;;;;7.45;2.60;;;;;;;29.42;30.52;103158.78;5062010;28;20103;-87
2022/03/18 10:45:03;;;;;;;3.95;1.83;;;;;;;29.68;29.95;103158.72;5051944;28;20032;-87
2022/03/18 10:47:37;;;;;;;8.32;2.88;;;;;;;28.84;31.10;103161.16;5050830;28;20056;-87
2022/03/18 10:50:14;;;;;;;9.05;2.38;;;;;;;28.39;31.71;103162.13;5046324;28;20495;-87
2022/03/18 10:52:40;;;;;;;18.15;3.13;;;;;;;28.78;31.19;103169.06;5050891;28;20025;-86
2022/03/18 10:55:14;;;;;;;8.38;2.85;;;;;;;28.62;31.66;103167.09;5051858;28;20497;-86
2022/03/18 10:57:39;;;;;;;5.45;2.30;;;;;;;28.52;32.25;103158.22;5040057;28;20029;-86
2022/03/18 11:00:05;;;;;;;7.22;2.40;;;;;;;28.96;31.13;103164.44;5052220;28;20040;-86
2022/03/18 11:02:32;;;;;;;7.10;2.33;;;;;;;28.17;32.32;103168.84;5050676;28;20029;-87
2022/03/18 11:04:57;;;;;;;5.63;2.13;;;;;;;28.15;32.22;103167.31;5051558;28;20079;-86
2022/03/18 11:07:34;;;;;;;8.63;3.00;;;;;;;28.33;31.71;103170.00;5051679;28;20021;-87
2022/03/18 11:12:48;;;;;;;8.85;2.53;;;;;;;28.35;32.13;103159.91;5051472;28;20047;-86
2022/03/18 11:15:15;;;;;;;8.75;2.20;;;;;;;28.59;32.34;103167.38;5049398;28;20501;-86
2022/03/18 11:17:42;;;;;;;5.43;2.08;;;;;;;28.52;32.69;103160.94;5051747;28;20025;-86
2022/03/18 11:20:10;;;;;;;9.10;2.80;;;;;;;28.66;31.89;103160.34;5046601;28;20387;-87
2022/03/18 11:22:37;;;;;;;8.18;2.28;;;;;;;27.91;32.44;103170.63;5039902;28;20028;-86
2022/03/18 11:25:03;;;;;;;5.68;1.92;;;;;;;27.89;32.64;103165.38;5051234;28;20029;-86
2022/03/18 11:27:29;;;;;;;6.60;2.58;;;;;;;27.11;33.45;103165.66;5051244;28;20522;-86
2022/03/18 11:30:17;;;;;;;9.40;2.70;;;;;;;26.44;34.94;103171.03;5051550;28;20103;-89
2022/03/18 11:32:42;;;;;;;13.27;3.17;;;;;;;25.78;35.26;103173.44;5051466;28;20033;-88
2022/03/18 11:35:08;;;;;;;7.35;2.22;;;;;;;26.46;34.63;103166.34;5051618;28;20021;-88
2022/03/18 11:37:33;;;;;;;11.35;3.35;;;;;;;25.83;35.80;103163.09;5051328;28;20071;-88
2022/03/18 11:40:17;;;;;;;6.18;2.20;;;;;;;26.55;34.77;103161.09;5050463;28;20036;-88